Weather observations for the past three days for
Cincinnati W Airport
Metric (Imperial)
Date Time (edt) Wind (kph) Vis. (km) Weather Sky Cond. Temperature (ºC) Relative Humidity Wind Chill (°C) Heat Index (°C) Pressure Precipitation (cm)
Air Dwpt 6 hour altimeter (cm) sea level (mb) 1 hr 3 hr 6 hr
Max. Min.
08 12:15 SW 22 G 35 16.09 Mostly Cloudy BKN120 19 6 43% 76.05 0.0
08 11:55 SW 19 G 30 16.09 Fair CLR 19 6 43% 76.05 0.0
08 11:35 SW 19 G 31 16.09 Fair CLR 18 6 46% 76.07 0.0
08 11:15 SW 20 G 28 16.09 Fair CLR 18 6 46% 76.1 0.0
08 10:55 SW 17 G 31 16.09 Fair CLR 17 5 45% 76.1 0.0
08 10:35 W 15 G 28 16.09 Fair CLR 17 5 45% 76.12 0.0
08 10:15 W 11 16.09 Fair CLR 16 5 48% 76.12 0.0
08 09:55 SW 13 16.09 Fair CLR 15 5 51% 76.15 0.0
08 09:35 SW 13 16.09 Fair CLR 13 5 59% 76.15 0.0
08 09:15 S 7 16.09 Fair CLR 12 6 67% 76.15 0.0
08 08:55 Calm 16.09 Fair CLR 11 5 67% 76.15 0.0
08 08:35 S 7 16.09 Fair CLR 10 5 71% 9 76.15 0.0
08 08:15 S 9 16.09 Fair CLR 9 5 76% 8 76.12 0.0
08 07:55 S 7 16.09 Fair CLR 8 4 76% 7 76.15 0.0
08 07:35 S 6 16.09 Partly Cloudy SCT100 7 4 81% 76.12 0.0
08 07:15 S 6 16.09 Mostly Cloudy SCT100 BKN120 7 3 76% 76.12 0.0
08 06:55 S 6 16.09 Overcast BKN095 OVC120 7 4 81% 76.1 0.0
08 06:15 S 7 16.09 Overcast SCT100 OVC120 7 4 81% 6 76.1 0.0
08 05:55 S 7 16.09 Overcast OVC110 7 4 81% 6 76.1 0.0
08 05:35 Calm 16.09 Overcast OVC100 7 4 81% 76.1 0.0
08 05:15 S 6 16.09 Mostly Cloudy BKN110 7 3 76% 76.1 0.0
08 04:55 S 7 16.09 Fair CLR 7 3 76% 6 76.1 0.0
08 04:35 Calm 16.09 Partly Cloudy SCT075 7 3 76% 76.1 0.0
08 04:15 S 7 16.09 Partly Cloudy SCT120 7 3 76% 6 76.1 0.0
08 03:55 S 6 16.09 Mostly Cloudy BKN120 7 3 76% 76.1 0.0
08 03:35 Calm 16.09 Fair CLR 7 3 76% 76.1 0.0
08 03:15 SW 7 16.09 Fair CLR 7 3 76% 6 76.1 0.0
08 02:55 S 6 16.09 Fair CLR 7 3 76% 76.12 0.0
08 02:35 S 6 16.09 Fair CLR 7 3 76% 76.12 0.0
08 02:15 S 7 16.09 Partly Cloudy SCT100 7 3 76% 6 76.15 0.0
08 01:55 SW 6 16.09 Partly Cloudy SCT100 7 3 76% 76.15 0.0
08 01:35 SW 6 16.09 Fair CLR 8 3 71% 76.15 0.0
08 01:15 SW 6 16.09 Fair CLR 8 3 71% 76.15 0.0
08 00:55 Calm 16.09 Fair CLR 8 4 76% 76.15 0.0
08 00:35 S 6 16.09 Fair CLR 7 5 87% 76.15 0.0
08 00:15 W 6 16.09 Fair CLR 7 5 87% 76.15 0.0
07 23:55 Calm 16.09 Fair CLR 8 5 82% 76.15 0.0
07 23:35 Calm 16.09 Fair CLR 8 5 82% 76.12 0.0
07 23:15 Calm 16.09 Fair CLR 8 4 76% 76.15 0.0
07 22:55 Calm 16.09 Fair CLR 8 5 82% 76.12 0.0
07 22:35 Calm 16.09 Fair CLR 9 4 71% 76.12 0.0
07 22:15 Calm 16.09 Fair CLR 8 3 71% 76.12 0.0
07 21:55 Calm 16.09 Fair CLR 10 4 67% 76.12 0.0
07 21:35 Calm 16.09 Fair CLR 11 3 58% 76.12 0.0
07 21:15 Calm 16.09 Fair CLR 11 3 58% 76.12 0.0
07 20:55 Calm 16.09 Fair CLR 13 1 44% 76.1 0.0
07 20:35 Calm 16.09 Fair CLR 13 0 41% 76.1 0.0
07 20:15 SW 6 16.09 Fair CLR 14 0 39% 76.07 0.0
07 19:55 SW 7 16.09 Fair CLR 15 0 36% 76.07 0.0
07 19:35 W 11 16.09 Fair CLR 15 0 36% 76.07 0.0
07 19:15 NW 11 16.09 Fair CLR 15 0 36% 76.07 0.0
07 18:55 NW 9 16.09 Fair CLR 16 0 34% 76.07 0.0
07 18:35 N 6 16.09 Fair CLR 15 0 36% 76.07 0.0
07 18:15 N 11 16.09 Partly Cloudy SCT075 16 0 34% 76.07 0.0
07 17:55 N 7 16.09 Partly Cloudy SCT080 16 0 34% 76.07 0.0
07 17:35 NW 11 16.09 Partly Cloudy SCT075 16 0 34% 76.07 0.0
07 17:15 Calm 16.09 Partly Cloudy SCT075 15 0 36% 76.1 0.0
07 16:15 N 11 16.09 Fair CLR 15 1 39% 76.1 0.0
07 15:55 NW 7 16.09 Partly Cloudy SCT070 15 0 36% 76.1 0.0
07 15:35 N 17 16.09 Partly Cloudy SCT070 15 1 39% 76.1 0.0
07 15:15 N 20 G 30 16.09 Partly Cloudy SCT070 15 0 36% 76.12 0.0
07 14:55 N 15 16.09 Fair CLR 15 0 36% 76.12 0.0
07 14:35 NE 9 16.09 Fair CLR 15 0 36% 76.12 0.0
07 14:15 N 9 16.09 Fair CLR 14 1 41% 76.15 0.0
07 13:55 N 19 G 30 16.09 Fair CLR 14 1 41% 76.15 0.0
07 13:35 N 11 16.09 Fair CLR 14 0 39% 76.17 0.0
07 13:15 N 15 16.09 Fair CLR 14 1 41% 76.2 0.0
07 12:55 N 17 16.09 Fair CLR 13 -1 38% 76.23 0.0
07 12:35 NW 11 16.09 Fair CLR 13 1 44% 76.23 0.0
07 12:15 NW 15 16.09 Fair CLR 13 0 41% 76.23 0.0
07 11:55 NW 13 16.09 Fair CLR 12 0 44% 76.23 0.0
07 11:35 W 11 16.09 Fair CLR 12 0 44% 76.23 0.0
07 11:15 NW 7 16.09 Fair CLR 12 0 44% 76.23 0.0
07 10:55 N 11 16.09 Fair CLR 12 1 47% 76.23 0.0
07 10:35 NW 11 16.09 Fair CLR 12 0 44% 76.23 0.0
07 10:15 NW 15 16.09 Fair CLR 11 0 47% 76.23 0.0
07 09:55 NW 15 16.09 Fair CLR 11 0 47% 76.23 0.0
07 09:35 N 11 16.09 Fair CLR 11 0 47% 76.23 0.0
07 09:15 NW 6 16.09 Fair CLR 10 3 62% 76.23 0.0
07 08:55 Calm 16.09 Fair CLR 8 3 71% 76.23 0.0
07 08:35 Calm 16.09 Fair CLR 7 3 76% 76.23 0.0
07 08:15 Calm 16.09 Fair CLR 6 3 81% 76.23 0.0
07 07:55 Calm 16.09 Fair CLR 5 3 87% 76.23 0.0
07 07:35 Calm 16.09 Fair CLR 5 2 81% 76.23 0.0
07 07:15 Calm 16.09 Fair CLR 3 2 93% 76.23 0.0
07 06:55 Calm 16.09 Fair CLR 3 2 93% 76.2 0.0
07 06:35 Calm 16.09 Fair CLR 4 2 87% 76.2 0.0
07 06:15 Calm 16.09 Fair CLR 4 2 87% 76.17 0.0
07 05:55 Calm 16.09 Fair CLR 4 3 93% 76.17 0.0
07 05:35 Calm 16.09 Fair CLR 5 3 87% 76.17 0.0
07 05:15 Calm 16.09 Fair CLR 5 3 87% 76.17 0.0
07 04:55 Calm 16.09 Fair CLR 5 3 87% 76.17 0.0
07 04:35 Calm 16.09 Fair CLR 5 4 93% 76.15 0.0
07 04:15 Calm 16.09 Fair CLR 5 4 93% 76.15 0.0
07 03:55 Calm 16.09 Fair CLR 5 4 93% 76.15 0.0
07 03:35 Calm 16.09 Fair CLR 5 5 100% 76.15 0.0
07 03:15 Calm 16.09 Fair CLR 5 5 100% 76.15 0.0
07 02:55 Calm 16.09 Fair CLR 5 4 93% 76.15 0.0 0.03
07 02:35 W 6 16.09 Fair CLR 6 5 93% 76.15 0.0
07 02:15 Calm 16.09 Fair CLR 6 5 93% 76.17 0.0
07 01:55 Calm 16.09 Fair CLR 6 5 93% 76.15 0.0
07 01:35 Calm 16.09 Fair CLR 6 5 93% 76.17 0.0
07 01:15 Calm 16.09 Fair CLR 6 5 93% 76.15 0.0
07 00:55 Calm 16.09 Fair CLR 7 6 93% 76.17 0.0
07 00:35 Calm 16.09 Fair CLR 6 6 100% 76.17 0.0
07 00:15 Calm 16.09 Fair CLR 6 6 100% 76.15 0.0
06 23:55 Calm 16.09 Fair CLR 7 6 93% 76.15 0.0 0.03
06 23:35 Calm 16.09 Fair CLR 7 6 93% 76.15 0.0 0.03
06 23:15 Calm 16.09 Partly Cloudy SCT060 7 6 93% 76.15 0.0
06 22:55 Calm 16.09 Mostly Cloudy BKN060 7 7 100% 76.15 0.0
06 22:35 Calm 16.09 Mostly Cloudy BKN060 8 6 87% 76.15 0.0
06 22:15 Calm 16.09 Partly Cloudy SCT060 8 6 87% 76.15 0.0
06 21:55 Calm 16.09 Partly Cloudy SCT060 10 7 82% 76.12 0.0
06 21:35 Calm 16.09 Fair CLR 10 7 82% 76.12 0.0
06 21:15 Calm 16.09 Fair CLR 10 6 76% 76.1 0.0
06 20:55 Calm 16.09 Partly Cloudy SCT075 12 5 63% 76.1 0.0 0.03
06 20:35 Calm 16.09 Mostly Cloudy BKN075 12 5 63% 76.1 0.0 0.03
06 20:15 Calm 16.09 Overcast OVC075 13 5 59% 76.07 0.0
06 19:55 Calm 16.09 Overcast OVC075 13 5 59% 76.05 0.0
06 19:35 N 6 16.09 Mostly Cloudy BKN075 13 4 55% 76.05 0.0
06 19:15 N 9 16.09 Partly Cloudy SCT050 SCT075 14 5 55% 76.05 0.0
06 18:55 N 7 16.09 Partly Cloudy SCT075 SCT090 15 3 45% 76.02 0.0 0.03
06 18:35 N 9 16.09 Mostly Cloudy SCT055 SCT080 BKN090 15 3 45% 76.02 0.0 0.03
06 18:15 N 11 16.09 Overcast BKN055 BKN080 OVC090 14 4 51% 76.05 0.0 0.03
06 17:55 NW 6 16.09 Overcast SCT055 OVC080 14 4 51% 76.05 0.0
06 17:35 N 6 16.09 Overcast OVC080 15 3 45% 76.05 0.0
06 17:15 N 7 16.09 Overcast OVC070 14 5 55% 76.05 0.0
06 16:55 N 11 16.09 Overcast OVC070 15 4 48% 76.02 0.0 0.03
06 16:35 N 9 16.09 Overcast OVC070 15 4 48% 76.02 0.0 0.03
06 16:15 N 7 16.09 Overcast OVC070 15 4 48% 76.05 0.0
06 15:55 N 6 16.09 Overcast OVC070 14 3 48% 76.05 0.0
06 15:35 N 6 16.09 Overcast OVC070 14 3 48% 76.05 0.0
06 15:15 NW 15 16.09 Overcast OVC080 15 4 48% 76.02 0.0
06 14:55 NW 17 16.09 Overcast OVC080 14 3 48% 76.02 0.0
06 14:35 N 15 16.09 Overcast BKN080 OVC090 14 4 51% 76.02 0.0
06 14:15 N 7 16.09 Overcast BKN080 OVC090 14 5 55% 76.02 0.0
06 13:55 N 15 16.09 Overcast OVC080 15 5 51% 76.02 0.0 0.03
06 13:35 NW 13 16.09 Partly Cloudy SCT080 SCT120 15 5 51% 76.05 0.0
06 13:15 N 7 16.09 Partly Cloudy SCT120 14 5 55% 76.05 0.0
06 12:55 N 11 16.09 Mostly Cloudy SCT080 BKN110 13 6 63% 76.05 0.0 0.03
06 12:35 NW 9 16.09 Overcast SCT039 OVC110 13 5 59% 76.07 0.0 0.03
06 12:15 NW 9 16.09 Overcast SCT037 OVC100 13 5 59% 76.05 0.0 0.03
06 11:55 N 7 16.09 Mostly Cloudy BKN100 BKN120 13 5 59% 76.05 0.0 0.03
06 11:35 N 7 16.09 Overcast SCT100 OVC120 12 5 63% 76.05 0.0 0.03
06 11:15 N 11 16.09 Mostly Cloudy SCT070 SCT100 BKN120 12 5 63% 76.05 0.0
06 10:55 N 15 16.09 Fair CLR 12 5 63% 76.02 0.0 0.05
06 10:35 N 17 16.09 Partly Cloudy SCT060 11 5 67% 76 0.0 0.03
06 10:15 N 13 16.09 Mostly Cloudy BKN060 10 5 71% 8 75.97 0.0 0.03
06 09:55 N 13 16.09 Overcast OVC060 10 5 71% 8 75.97 0.0 0.03
06 09:35 N 11 16.09 Overcast SCT049 OVC060 10 5 71% 9 75.97 0.0 0.03
06 09:15 N 13 16.09 Overcast BKN047 OVC060 9 5 76% 7 75.95 0.0
06 08:55 N 7 16.09 Overcast OVC047 8 5 82% 7 75.92 0.0 0.05
06 08:35 N 11 16.09 Overcast OVC045 8 5 82% 6 75.95 0.0 0.03
06 08:15 N 7 16.09 Overcast OVC043 8 5 82% 7 75.92 0.0 0.03
06 07:55 N 7 16.09 Overcast OVC041 7 5 87% 6 75.9 0.0 0.05
06 07:35 N 7 16.09 Overcast OVC039 7 5 87% 6 75.84 0.0 0.03
06 07:15 Calm 16.09 Overcast OVC039 7 5 87% 75.79 0.0 0.03
06 06:55 N 9 16.09 Overcast OVC039 7 5 87% 5 75.79 0.0 0.08
06 06:35 N 7 16.09 Overcast OVC037 7 5 87% 6 75.79 0.0 0.05
06 06:15 Calm 16.09 Overcast OVC037 7 5 87% 75.79 0.0 0.03
06 05:55 N 7 16.09 Overcast OVC035 7 5 87% 6 75.74 0.0 0.08
06 05:35 N 6 16.09 Overcast BKN035 OVC049 7 5 87% 75.74 0.0 0.05
06 05:15 Calm 16.09 Overcast BKN035 OVC047 6 5 93% 75.74 0.0 0.03
06 04:55 N 6 16.09 Overcast BKN033 OVC045 6 5 93% 75.72 0.0 0.13
06 04:35 N 11 16.09 Overcast OVC033 6 5 93% 4 75.69 0.0 0.08
06 04:15 N 11 16.09 Overcast OVC031 6 5 93% 4 75.72 0.0 0.05
06 03:55 N 15 G 26 16.09 Overcast OVC031 6 5 93% 3 75.67 0.0 0.13
06 03:35 N 19 G 28 16.09 Overcast SCT019 OVC029 7 5 87% 4 75.67 0.0 0.08
06 03:15 N 22 G 28 16.09 Overcast SCT011 BKN016 OVC022 7 6 93% 4 75.69 0.0 0.03
06 02:55 N 17 G 31 16.09 Overcast BKN012 OVC017 8 7 93% 6 75.67 0.0 0.13
06 02:35 N 9 16.09 Overcast OVC012 8 7 93% 7 75.64 0.0 0.1
06 01:55 N 11 16.09 Overcast OVC010 8 8 100% 6 75.59 0.0 0.15
06 01:35 N 7 G 30 16.09 Overcast BKN008 OVC012 8 8 100% 7 75.62 0.0 0.1
06 01:15 NE 15 11.27 Overcast OVC006 9 8 94% 7 75.62 0.0 0.05
06 00:55 N 11 6.44 Overcast OVC006 10 9 94% 9 75.62 0.0 0.15
06 00:35 N 9 6.44 Overcast OVC006 10 9 94% 9 75.59 0.0 0.08
06 00:15 N 17 8.05 Overcast OVC006 10 10 100% 8 75.57 0.0 0.03
05 23:55 N 6 6.44 Overcast BKN006 OVC013 10 10 100% 75.57 0.0 0.15
05 23:35 NW 13 8.05 Overcast BKN004 BKN010 OVC016 11 11 100% 75.54 0.0 0.1
05 23:15 NW 7 16.09 Overcast OVC004 12 11 94% 75.51 0.0 0.05
05 22:55 NW 9 16.09 Overcast OVC006 12 12 100% 75.51 0.0 0.2
05 22:35 NE 17 8.05 Overcast OVC006 12 12 100% 75.51 0.0 0.13
05 22:15 Calm 4.83 Mostly Cloudy SCT004 BKN010 BKN017 13 13 100% 75.57 0.0 0.05
05 21:55 Calm 6.44 Overcast BKN018 OVC024 15 15 100% 75.57 0.0 0.2
05 21:35 Calm 8.05 Overcast SCT017 BKN025 OVC033 15 15 100% 75.57 0.0 0.1
05 21:15 Calm 16.09 Overcast BKN034 OVC042 15 15 100% 75.54 0.0 0.08
05 20:55 Calm 8.05 Overcast SCT031 OVC041 15 15 100% 75.54 0.0 0.18
05 20:35 Calm 6.44 Overcast SCT032 BKN040 OVC046 15 15 100% 75.57 0.0 0.05
05 20:15 Calm 16.09 Overcast BKN045 BKN055 OVC065 15 15 100% 75.54 0.0
05 19:55 Calm 11.27 Overcast OVC060 15 15 100% 75.51 0.0 0.1
05 19:35 SW 9 16.09 Overcast SCT015 SCT039 OVC060 16 15 94% 75.54 0.0 0.05
05 19:15 S 9 8.05 Overcast SCT020 SCT039 OVC047 16 15 94% 75.54 0.0 0.03
05 18:55 SW 13 16.09 Overcast OVC047 16 15 94% 75.57 0.0
05 18:35 SW 9 16.09 Overcast OVC047 16 15 94% 75.57 0.0
05 18:15 SW 11 16.09 Overcast SCT008 BKN050 OVC075 16 15 94% 75.59 0.0
05 17:55 SW 11 11.27 Overcast BKN008 BKN012 OVC019 16 15 94% 75.62 0.0 0.08
05 17:35 SW 9 11.27 Overcast BKN010 BKN019 OVC043 16 15 94% 75.62 0.0 0.05
05 17:15 SW 13 11.27 Overcast SCT010 BKN036 OVC050 16 15 94% 75.62 0.0 0.03
05 16:55 SW 15 G 26 11.27 Overcast SCT035 BKN055 OVC090 16 15 94% 75.62 0.0 0.05
05 16:35 SW 13 16.09 Overcast SCT036 BKN060 OVC090 16 15 94% 75.62 0.0
05 16:15 SW 13 16.09 Overcast SCT038 BKN050 OVC075 16 15 94% 75.64 0.0
05 15:55 SW 15 16.09 Overcast SCT050 OVC070 16 15 94% 75.64 0.0 0.25
05 15:35 SW 11 11.27 Overcast SCT041 BKN060 OVC070 16 15 94% 75.67 0.0 0.2
05 15:15 SW 15 G 35 4.83 Overcast SCT035 BKN042 OVC049 16 14 88% 75.69 0.0 0.05
05 14:55 SW 20 G 28 16.09 Overcast OVC035 18 13 73% 75.67 0.0
05 14:35 SW 15 16.09 Overcast BKN037 OVC047 19 13 68% 75.67 0.0
05 14:15 SW 13 16.09 Overcast BKN046 OVC055 19 13 68% 75.67 0.0
05 13:55 SW 13 16.09 Overcast SCT044 OVC055 18 13 73% 75.67 0.0
05 13:35 SW 15 G 26 16.09 Overcast OVC055 18 12 68% 75.69 0.0
05 13:15 SW 13 16.09 Overcast OVC055 18 13 73% 75.72 0.0
05 12:55 SW 13 16.09 Overcast OVC055 18 13 73% 75.72 0.0
05 12:35 SW 17 G 26 16.09 Overcast OVC055 18 13 73% 75.72 0.0
Date Time (edt) Wind (kph) Vis. (km) Weather Sky Cond. Air Dwpt Max. Min. Relative Humidity Wind Chill (°C) Heat Index (°C) altimeter (cm) sea level (mb) 1 hr 3 hr 6 hr
6 hour
Temperature (ºC) Pressure Precipitation (cm)